Time;durP1;ratioP1;P1;durP2;ratioP2;P2;SDS_P1;SDS_P2;PMS_P1;PMS_P2;Temp;Humidity;BMP_temperature;BMP_pressure;BME280_temperature;BME280_humidity;BME280_pressure;Samples;Min_cycle;Max_cycle;Signal;HPM_P1;HPM_P2
2022/03/14 00:00:44;;;;;;;30.10;13.45;;;;;;;1.56;65.02;98326.72;5044429;28;20052;-58
2022/03/14 00:03:12;;;;;;;34.17;14.48;;;;;;;1.44;64.59;98313.38;5044725;28;20056;-57
2022/03/14 00:05:39;;;;;;;33.05;14.80;;;;;;;1.21;64.48;98285.94;5043313;28;20072;-56
2022/03/14 00:08:06;;;;;;;35.70;15.10;;;;;;;1.43;65.05;98390.09;5044749;28;20263;-58
2022/03/14 00:10:34;;;;;;;35.05;15.50;;;;;;;1.54;65.36;98324.25;5043174;28;20060;-58
2022/03/14 00:13:03;;;;;;;34.13;14.75;;;;;;;0.41;64.69;98150.72;5044327;28;20045;-57
2022/03/14 00:15:32;;;;;;;31.23;13.43;;;;;;;1.60;63.84;98335.16;5044757;28;20166;-57
2022/03/14 00:18:04;;;;;;;31.38;13.68;;;;;;;1.02;63.93;98255.75;5044580;28;20056;-58
2022/03/14 00:20:31;;;;;;;32.42;14.02;;;;;;;1.05;64.67;98260.63;5044029;28;20455;-57
2022/03/14 00:22:59;;;;;;;35.10;13.90;;;;;;;1.47;65.83;98340.13;5044378;28;20049;-58
2022/03/14 00:25:26;;;;;;;41.85;14.93;;;;;;;1.17;65.97;98282.94;5044404;28;20052;-57
2022/03/14 00:27:54;;;;;;;34.05;14.32;;;;;;;1.58;65.28;98347.16;5044480;28;20048;-56
2022/03/14 00:30:22;;;;;;;33.92;14.48;;;;;;;1.22;65.46;98277.47;5044346;28;20052;-58
2022/03/14 00:32:48;;;;;;;36.30;16.48;;;;;;;1.67;65.47;98338.38;5042875;28;20064;-59
2022/03/14 00:35:16;;;;;;;55.95;18.30;;;;;;;1.63;65.52;98340.06;5043990;28;20045;-59
2022/03/14 00:37:43;;;;;;;38.65;18.30;;;;;;;1.48;65.57;98325.38;5043964;28;20114;-57
2022/03/14 00:40:10;;;;;;;53.95;20.65;;;;;;;1.62;64.99;98341.13;5044318;28;20056;-56
2022/03/14 00:42:39;;;;;;;46.22;19.98;;;;;;;1.67;64.77;98343.84;5044291;28;20215;-57
2022/03/14 00:45:07;;;;;;;39.53;16.92;;;;;;;1.14;64.38;98269.03;5044239;28;20625;-57
2022/03/14 00:47:34;;;;;;;34.90;15.25;;;;;;;0.36;64.02;98136.31;5042609;28;20055;-57
2022/03/14 00:50:01;;;;;;;31.33;11.30;;;;;;;1.12;66.75;98323.88;5044240;28;20073;-57
2022/03/14 00:52:27;;;;;;;20.67;9.70;;;;;;;1.35;66.52;98339.63;5044285;28;20049;-57
2022/03/14 00:54:54;;;;;;;24.63;9.18;;;;;;;1.04;66.41;98291.72;5043808;28;20059;-57
2022/03/14 00:57:21;;;;;;;26.23;9.65;;;;;;;1.37;66.49;98340.19;5042581;28;20053;-57
2022/03/14 00:59:47;;;;;;;18.60;8.13;;;;;;;1.29;66.89;98343.50;5044220;28;20060;-56
2022/03/14 01:02:14;;;;;;;25.55;9.02;;;;;;;0.72;67.27;98279.56;5044503;28;20079;-56
2022/03/14 01:04:41;;;;;;;21.63;8.77;;;;;;;0.82;67.46;98304.88;5043912;28;20060;-57
2022/03/14 01:07:08;;;;;;;22.27;9.35;;;;;;;1.39;66.63;98337.97;5043585;28;20053;-57
2022/03/14 01:09:34;;;;;;;20.38;8.50;;;;;;;0.98;67.10;98302.97;5042096;28;20061;-57
2022/03/14 01:12:02;;;;;;;20.17;8.35;;;;;;;0.78;66.94;98252.00;5043525;28;20049;-58
2022/03/14 01:14:29;;;;;;;19.50;8.73;;;;;;;1.45;67.42;98352.44;5041921;28;20045;-57
2022/03/14 01:16:55;;;;;;;21.65;8.25;;;;;;;1.36;67.01;98349.44;5042115;28;20045;-57
2022/03/14 01:19:22;;;;;;;22.67;7.78;;;;;;;1.40;66.68;98356.00;5043864;28;20048;-59
2022/03/14 01:21:49;;;;;;;18.73;7.47;;;;;;;1.32;67.31;98348.38;5043951;28;20057;-56
2022/03/14 01:24:16;;;;;;;15.40;5.97;;;;;;;0.65;66.93;98274.41;5041956;28;20065;-56
2022/03/14 01:26:43;;;;;;;15.63;6.03;;;;;;;1.18;66.98;98349.25;5041822;28;20045;-57
2022/03/14 01:29:10;;;;;;;14.82;5.78;;;;;;;1.19;67.23;98346.25;5042964;28;20057;-58
2022/03/14 01:31:38;;;;;;;11.70;4.90;;;;;;;1.26;66.40;98348.69;5043536;28;20051;-56
2022/03/14 01:34:05;;;;;;;17.70;6.07;;;;;;;1.23;66.28;98339.13;5041562;28;20519;-58
2022/03/14 01:36:32;;;;;;;17.50;6.45;;;;;;;1.33;65.98;98349.19;5044932;28;20052;-57
2022/03/14 01:38:59;;;;;;;11.88;6.30;;;;;;;0.89;65.78;98280.06;5047327;28;20056;-55
2022/03/14 01:41:28;;;;;;;16.35;7.13;;;;;;;1.32;66.21;98348.38;5047675;28;20057;-57
2022/03/14 01:43:56;;;;;;;24.75;8.95;;;;;;;1.43;64.66;98355.44;5046574;28;20083;-57
2022/03/14 01:46:23;;;;;;;25.30;9.40;;;;;;;1.45;65.20;98352.44;5046117;28;20512;-58
2022/03/14 01:48:51;;;;;;;30.25;10.52;;;;;;;1.29;65.44;98335.31;5047329;28;20619;-56
2022/03/14 01:51:18;;;;;;;48.25;13.60;;;;;;;1.47;65.30;98372.88;5045749;28;20049;-58
2022/03/14 01:53:45;;;;;;;69.20;17.77;;;;;;;0.69;65.35;98241.94;5047381;28;20052;-57
2022/03/14 01:56:13;;;;;;;56.03;15.00;;;;;;;1.28;65.66;98341.03;5045737;28;20067;-57
2022/03/14 01:58:41;;;;;;;54.67;17.05;;;;;;;0.69;65.88;98245.50;5045742;28;20053;-56
2022/03/14 02:01:07;;;;;;;63.95;20.08;;;;;;;1.36;66.40;98365.81;5047106;28;20067;-57
2022/03/14 02:03:34;;;;;;;53.25;18.02;;;;;;;1.25;66.79;98347.84;5045512;28;20053;-56
2022/03/14 02:06:01;;;;;;;42.00;15.38;;;;;;;1.19;66.58;98338.06;5046858;28;20061;-58
2022/03/14 02:08:28;;;;;;;27.80;12.43;;;;;;;1.33;65.99;98377.31;5046969;28;20053;-57
2022/03/14 02:10:54;;;;;;;26.40;10.25;;;;;;;1.42;65.40;98381.09;5047355;28;20582;-57
2022/03/14 02:13:21;;;;;;;29.25;10.60;;;;;;;0.73;64.56;98279.28;5045852;28;20059;-57
2022/03/14 02:15:48;;;;;;;27.10;10.65;;;;;;;1.42;64.83;98383.03;5045630;28;20475;-57
2022/03/14 02:18:15;;;;;;;30.92;11.88;;;;;;;1.35;64.79;98396.97;5046654;28;20060;-57
2022/03/14 02:20:42;;;;;;;25.08;9.25;;;;;;;1.46;65.10;98387.63;5045254;28;20080;-56
2022/03/14 02:23:08;;;;;;;25.48;9.48;;;;;;;1.44;65.14;98392.56;5046548;28;20496;-56
2022/03/14 02:25:35;;;;;;;25.20;10.60;;;;;;;1.47;66.25;98389.25;5045377;28;20056;-57
2022/03/14 02:28:02;;;;;;;30.05;11.65;;;;;;;1.51;66.04;98395.81;5046961;28;20059;-58
2022/03/14 02:30:29;;;;;;;39.28;14.38;;;;;;;1.01;65.78;98316.81;5046162;28;20080;-57
2022/03/14 02:32:58;;;;;;;44.72;16.35;;;;;;;1.63;65.30;98397.41;5047060;28;20080;-56
2022/03/14 02:35:25;;;;;;;47.53;15.60;;;;;;;1.24;66.25;98389.91;5046930;28;20520;-59
2022/03/14 02:37:52;;;;;;;36.38;13.77;;;;;;;1.16;65.73;98363.19;5046422;28;20053;-56
2022/03/14 02:40:18;;;;;;;36.15;13.73;;;;;;;1.44;65.69;98406.19;5044759;28;20503;-57
2022/03/14 02:42:45;;;;;;;36.90;13.13;;;;;;;1.32;65.47;98408.44;5046157;28;20135;-56
2022/03/14 02:45:12;;;;;;;40.88;13.68;;;;;;;0.99;64.90;98343.59;5046092;28;20060;-57
2022/03/14 02:47:39;;;;;;;27.85;11.05;;;;;;;1.28;64.82;98401.88;5044817;28;20045;-57
2022/03/14 02:50:06;;;;;;;21.13;8.48;;;;;;;1.36;66.10;98419.59;5045943;28;20048;-58
2022/03/14 02:52:33;;;;;;;23.95;9.10;;;;;;;1.44;66.07;98428.03;5044886;28;20055;-57
2022/03/14 02:54:59;;;;;;;26.73;9.35;;;;;;;1.39;66.47;98425.31;5030311;28;20492;-58
2022/03/14 02:57:28;;;;;;;21.33;9.38;;;;;;;1.30;67.10;98435.19;5026374;28;20038;-57
2022/03/14 02:59:56;;;;;;;21.90;8.05;;;;;;;1.27;66.11;98434.91;5026123;28;20053;-59
2022/03/14 03:02:24;;;;;;;18.52;8.10;;;;;;;0.87;66.27;98362.16;5024763;28;20537;-57
2022/03/14 03:04:52;;;;;;;21.75;8.55;;;;;;;0.84;65.16;98357.25;5025834;28;20049;-57
2022/03/14 03:07:19;;;;;;;28.08;9.80;;;;;;;1.34;65.68;98432.72;5025868;28;20052;-58
2022/03/14 03:09:46;;;;;;;21.77;9.52;;;;;;;0.73;65.87;98366.53;5025744;28;20061;-57
2022/03/14 03:12:13;;;;;;;31.42;9.35;;;;;;;1.20;65.35;98443.38;5026206;28;20045;-57
2022/03/14 03:14:41;;;;;;;29.75;11.68;;;;;;;1.13;65.82;98442.88;5025916;28;20061;-57
2022/03/14 03:17:08;;;;;;;27.10;10.80;;;;;;;1.11;66.74;98434.13;5025595;28;20049;-57
2022/03/14 03:19:35;;;;;;;25.45;11.93;;;;;;;0.69;66.94;98364.66;5025691;28;20095;-58
2022/03/14 03:22:02;;;;;;;32.63;11.85;;;;;;;1.18;66.53;98440.13;5057415;28;20049;-58
2022/03/14 03:24:30;;;;;;;36.22;12.73;;;;;;;1.26;66.64;98447.75;5057011;28;20068;-57
2022/03/14 03:26:56;;;;;;;30.48;11.10;;;;;;;0.79;67.05;98379.06;5025805;28;20469;-55
2022/03/14 03:29:24;;;;;;;39.30;12.68;;;;;;;1.21;66.76;98447.75;5057501;28;20057;-58
2022/03/14 03:31:51;;;;;;;38.58;14.18;;;;;;;1.29;66.96;98449.94;5026175;28;20076;-57
2022/03/14 03:34:17;;;;;;;46.00;18.35;;;;;;;1.33;66.63;98453.72;5025840;28;20060;-56
2022/03/14 03:36:44;;;;;;;36.72;14.23;;;;;;;1.32;66.30;98468.47;5025168;28;20049;-57
2022/03/14 03:39:11;;;;;;;27.10;10.25;;;;;;;1.14;66.54;98430.84;5056930;28;20053;-56
2022/03/14 03:41:38;;;;;;;28.23;10.65;;;;;;;0.81;66.50;98404.16;5025454;28;20057;-56
2022/03/14 03:44:06;;;;;;;21.80;9.90;;;;;;;1.26;66.42;98455.94;5025151;28;20057;-59
2022/03/14 03:46:33;;;;;;;24.40;9.27;;;;;;;1.22;66.86;98471.22;5025101;28;20061;-55
2022/03/14 03:49:00;;;;;;;25.45;9.48;;;;;;;1.29;66.85;98479.94;5025201;28;20088;-56
2022/03/14 03:51:26;;;;;;;22.33;8.52;;;;;;;1.41;66.00;98472.28;5025084;28;20056;-58
2022/03/14 03:53:53;;;;;;;20.88;9.50;;;;;;;1.39;66.13;98479.91;5031527;28;20049;-57
2022/03/14 03:56:20;;;;;;;28.63;9.70;;;;;;;1.42;66.75;98482.09;5043600;28;20067;-58
2022/03/14 03:58:47;;;;;;;28.63;10.07;;;;;;;1.49;66.39;98490.81;5042737;28;20057;-57
2022/03/14 04:01:18;;;;;;;28.48;11.85;;;;;;;1.38;66.55;98470.09;5044836;28;20056;-56
2022/03/14 04:03:54;;;;;;;23.48;10.60;;;;;;;1.21;66.79;98477.78;5045064;28;20083;-57
2022/03/14 04:06:27;;;;;;;23.23;10.60;;;;;;;1.50;66.80;98491.66;5044622;28;20135;-58
2022/03/14 04:08:54;;;;;;;22.63;9.50;;;;;;;1.49;67.66;98496.28;5044411;28;20106;-57
2022/03/14 04:11:22;;;;;;;29.92;12.02;;;;;;;1.16;67.90;98458.69;5044749;28;20140;-58
2022/03/14 04:13:51;;;;;;;33.53;14.02;;;;;;;1.37;68.62;98492.22;5044779;28;20144;-56
2022/03/14 04:16:18;;;;;;;45.92;17.60;;;;;;;1.45;68.71;98506.09;5044247;28;20057;-56
2022/03/14 04:18:45;;;;;;;40.88;17.70;;;;;;;1.44;68.41;98496.28;5044790;28;20057;-58
2022/03/14 04:21:14;;;;;;;30.27;13.93;;;;;;;1.41;68.13;98507.75;5042954;28;20471;-58
2022/03/14 04:23:41;;;;;;;25.90;11.40;;;;;;;1.10;68.83;98467.16;5044408;28;20057;-58
2022/03/14 04:26:09;;;;;;;23.17;11.90;;;;;;;1.30;69.48;98508.88;5042795;28;20045;-57
2022/03/14 04:28:36;;;;;;;26.55;11.68;;;;;;;1.25;69.48;98511.59;5044387;28;20523;-58
2022/03/14 04:31:03;;;;;;;25.48;10.85;;;;;;;1.32;69.27;98506.69;5044365;28;20092;-57
2022/03/14 04:33:31;;;;;;;34.85;15.40;;;;;;;1.31;69.51;98529.59;5044515;28;20049;-57
2022/03/14 04:35:58;;;;;;;35.75;13.80;;;;;;;1.27;68.99;98525.78;5044687;28;20068;-57
2022/03/14 04:38:26;;;;;;;27.50;11.20;;;;;;;1.31;68.33;98524.16;5043987;28;20063;-58
2022/03/14 04:40:53;;;;;;;29.00;12.40;;;;;;;1.30;67.67;98524.41;5044218;28;20056;-57
2022/03/14 04:43:21;;;;;;;32.72;12.05;;;;;;;1.23;67.38;98504.78;5043920;28;20060;-57
2022/03/14 04:45:49;;;;;;;33.22;14.80;;;;;;;0.29;67.42;98381.81;5043753;28;20581;-55
2022/03/14 04:48:16;;;;;;;40.15;15.07;;;;;;;1.20;68.03;98536.16;5043699;28;20045;-57
2022/03/14 04:50:43;;;;;;;36.30;14.27;;;;;;;0.95;68.41;98497.97;5043928;28;20056;-57
2022/03/14 04:53:10;;;;;;;25.75;11.30;;;;;;;1.26;67.59;98535.09;5043414;28;20063;-56
2022/03/14 04:55:37;;;;;;;45.47;16.08;;;;;;;1.16;68.11;98535.09;5056071;28;20103;-57
2022/03/14 04:58:04;;;;;;;30.33;11.25;;;;;;;1.24;67.32;98531.81;5023958;28;20448;-57
2022/03/14 05:00:32;;;;;;;26.15;9.20;;;;;;;1.19;67.42;98545.44;5023431;28;20060;-57
2022/03/14 05:03:03;;;;;;;18.05;8.05;;;;;;;0.71;67.22;98461.41;5023784;28;20091;-57
2022/03/14 05:05:31;;;;;;;22.65;9.15;;;;;;;1.23;67.37;98546.53;5023575;28;20063;-57
2022/03/14 05:07:57;;;;;;;42.63;15.85;;;;;;;1.32;66.55;98553.09;5023583;28;20132;-57
2022/03/14 05:10:24;;;;;;;30.10;13.20;;;;;;;1.36;66.29;98559.63;5022978;28;20065;-58
2022/03/14 05:12:51;;;;;;;24.02;10.25;;;;;;;1.31;66.43;98532.34;5023902;28;20084;-57
2022/03/14 05:15:18;;;;;;;21.38;8.30;;;;;;;1.47;65.86;98557.72;5055253;28;20045;-56
2022/03/14 05:17:46;;;;;;;23.73;9.43;;;;;;;1.58;66.85;98556.63;5023614;28;20054;-57
2022/03/14 05:20:13;;;;;;;20.35;8.02;;;;;;;1.74;65.43;98562.88;5023564;28;20056;-59
2022/03/14 05:22:44;;;;;;;24.00;10.20;;;;;;;1.70;65.75;98538.00;5023354;28;20075;-58
2022/03/14 05:25:11;;;;;;;26.50;11.63;;;;;;;1.91;65.79;98557.91;5023398;28;20056;-56
2022/03/14 05:27:39;;;;;;;33.22;14.27;;;;;;;1.65;65.44;98507.97;5024219;28;20053;-56
2022/03/14 05:30:08;;;;;;;33.03;14.23;;;;;;;2.02;64.62;98543.94;5023600;28;20045;-57
2022/03/14 05:32:36;;;;;;;44.03;16.58;;;;;;;2.07;63.65;98545.81;5054939;28;20088;-57
2022/03/14 05:35:04;;;;;;;43.88;17.83;;;;;;;2.21;64.39;98568.72;5023350;28;20516;-58
2022/03/14 05:37:31;;;;;;;89.40;35.63;;;;;;;2.33;63.84;98571.94;5023034;28;20049;-56
2022/03/14 05:39:58;;;;;;;64.13;24.13;;;;;;;1.76;63.99;98495.09;5024027;28;20560;-57
2022/03/14 05:42:26;;;;;;;73.95;29.83;;;;;;;2.02;62.70;98521.25;5054986;28;20057;-59
2022/03/14 05:44:53;;;;;;;106.68;43.78;;;;;;;2.05;63.79;98559.78;5054751;28;20057;-57
2022/03/14 05:47:20;;;;;;;124.55;47.70;;;;;;;2.21;63.28;98585.13;5055359;28;20068;-57
2022/03/14 05:49:47;;;;;;;109.38;43.28;;;;;;;2.32;63.87;98587.56;5032971;28;20052;-58
2022/03/14 05:52:15;;;;;;;107.95;51.20;;;;;;;2.38;71.34;98577.41;5041414;28;20051;-58
2022/03/14 05:54:42;;;;;;;82.75;36.00;;;;;;;1.87;72.68;98499.44;5041318;28;20059;-56
2022/03/14 05:57:09;;;;;;;55.42;24.33;;;;;;;2.37;67.58;98578.50;5041613;28;20053;-57
2022/03/14 05:59:35;;;;;;;52.15;21.38;;;;;;;2.10;66.74;98584.34;5042954;28;20045;-58
2022/03/14 06:02:02;;;;;;;64.20;26.40;;;;;;;2.10;67.77;98589.00;5041702;28;20049;-57
2022/03/14 06:04:29;;;;;;;63.05;26.58;;;;;;;2.12;68.81;98592.28;5042576;28;20445;-58
2022/03/14 06:06:56;;;;;;;75.78;49.95;;;;;;;2.13;72.28;98602.09;5042885;28;20413;-58
2022/03/14 06:09:25;;;;;;;62.08;29.05;;;;;;;2.03;67.11;98583.00;5043095;28;20064;-59
2022/03/14 06:11:57;;;;;;;103.03;47.28;;;;;;;1.86;67.42;98544.25;5043439;28;20049;-55
2022/03/14 06:14:24;;;;;;;38.67;16.20;;;;;;;2.28;64.45;98602.88;5043010;28;20049;-58
2022/03/14 06:16:51;;;;;;;57.53;22.17;;;;;;;1.82;63.56;98565.03;5043411;28;20049;-56
2022/03/14 06:19:18;;;;;;;47.10;18.85;;;;;;;2.22;63.82;98609.44;5042973;28;20056;-58
2022/03/14 06:21:44;;;;;;;37.95;15.45;;;;;;;2.28;63.20;98596.56;5044613;28;20048;-55
2022/03/14 06:24:11;;;;;;;47.08;19.98;;;;;;;1.89;63.53;98510.91;5046670;28;20053;-56
2022/03/14 06:26:38;;;;;;;46.65;20.85;;;;;;;2.80;62.54;98626.97;5046706;28;20063;-58
2022/03/14 06:29:04;;;;;;;37.67;18.42;;;;;;;3.03;61.97;98626.31;5044588;28;20051;-58
2022/03/14 06:31:33;;;;;;;44.70;17.80;;;;;;;2.97;60.30;98578.97;5045767;28;20056;-55
2022/03/14 06:34:00;;;;;;;50.90;19.65;;;;;;;3.33;59.00;98598.72;5047148;28;20104;-55
2022/03/14 06:36:27;;;;;;;37.72;14.45;;;;;;;3.32;57.02;98608.00;5046420;28;20049;-58
2022/03/14 06:38:58;;;;;;;38.25;14.05;;;;;;;3.68;57.33;98625.81;5046471;28;20056;-58
2022/03/14 06:41:27;;;;;;;42.03;15.98;;;;;;;3.93;56.33;98616.53;5046050;28;20471;-58
2022/03/14 06:43:56;;;;;;;41.55;17.02;;;;;;;4.28;54.67;98644.41;5044774;28;20041;-55
2022/03/14 06:46:24;;;;;;;30.90;12.88;;;;;;;4.62;53.16;98636.88;5045662;28;20111;-59
2022/03/14 06:48:51;;;;;;;21.02;10.93;;;;;;;4.78;52.00;98625.69;5038127;28;20243;-63
2022/03/14 06:51:19;;;;;;;21.55;10.63;;;;;;;3.84;52.06;98453.84;5043901;28;20532;-57
2022/03/14 06:53:45;;;;;;;19.25;9.57;;;;;;;4.59;50.30;98560.63;5044971;28;20078;-57
2022/03/14 06:56:14;;;;;;;17.23;8.85;;;;;;;4.82;51.04;98637.75;5044445;28;20045;-55
2022/03/14 06:58:40;;;;;;;22.70;8.45;;;;;;;4.92;50.50;98654.06;5042305;28;20060;-58
2022/03/14 07:01:07;;;;;;;17.35;9.30;;;;;;;4.90;50.02;98640.63;5045198;28;20252;-59
2022/03/14 07:03:34;;;;;;;20.50;9.15;;;;;;;4.91;50.38;98644.19;5044877;28;20279;-60
2022/03/14 07:06:02;;;;;;;21.23;11.52;;;;;;;4.86;50.73;98644.25;5044534;28;20491;-56
2022/03/14 07:08:28;;;;;;;29.35;12.80;;;;;;;4.76;50.74;98638.91;5043464;28;20532;-58
2022/03/14 07:10:55;;;;;;;23.65;10.23;;;;;;;4.88;50.32;98648.38;5043379;28;20515;-54
2022/03/14 07:13:22;;;;;;;12.85;6.20;;;;;;;3.55;48.51;98514.16;5044296;28;20053;-59
2022/03/14 07:15:49;;;;;;;12.38;5.80;;;;;;;4.62;48.82;98656.09;5045200;28;20048;-57
2022/03/14 07:18:15;;;;;;;32.47;13.23;;;;;;;4.62;48.90;98660.75;5044322;28;20118;-57
2022/03/14 07:20:42;;;;;;;28.13;11.25;;;;;;;5.04;47.33;98657.22;5044390;28;20055;-57
2022/03/14 07:23:09;;;;;;;10.82;6.20;;;;;;;2.55;46.05;98225.06;5044725;28;20049;-57
2022/03/14 07:25:40;;;;;;;17.98;7.07;;;;;;;5.51;45.14;98657.06;5045527;28;20053;-58
2022/03/14 07:28:09;;;;;;;12.50;5.82;;;;;;;5.32;44.68;98637.03;5044421;28;20060;-56
2022/03/14 07:30:36;;;;;;;14.25;6.72;;;;;;;5.29;44.26;98585.44;5044294;28;20051;-58
2022/03/14 07:33:03;;;;;;;12.40;5.57;;;;;;;5.69;43.04;98653.50;5043019;28;20056;-61
2022/03/14 07:35:31;;;;;;;8.90;4.20;;;;;;;5.15;42.61;98579.06;5044048;28;20080;-58
2022/03/14 07:37:58;;;;;;;13.80;6.25;;;;;;;5.60;43.71;98660.78;5044034;28;20053;-55
2022/03/14 07:40:25;;;;;;;5.35;2.88;;;;;;;5.02;44.15;98670.41;5034741;28;20546;-58
2022/03/14 07:42:53;;;;;;;13.98;5.78;;;;;;;5.74;43.77;98667.97;5038656;28;20052;-57
2022/03/14 07:45:23;;;;;;;12.57;6.03;;;;;;;6.51;43.29;98655.38;5044960;28;20567;-62
2022/03/14 07:47:50;;;;;;;15.93;6.13;;;;;;;6.96;41.26;98659.13;5045000;28;20059;-56
2022/03/14 07:50:18;;;;;;;10.88;4.78;;;;;;;6.29;41.88;98674.50;5044241;28;20049;-56
2022/03/14 07:52:45;;;;;;;12.88;5.00;;;;;;;5.81;41.64;98668.41;5042885;28;20426;-61
2022/03/14 07:55:13;;;;;;;6.15;1.92;;;;;;;5.87;41.99;98666.41;5043623;28;20053;-55
2022/03/14 07:57:40;;;;;;;11.55;4.95;;;;;;;5.91;42.42;98661.97;5041282;28;20064;-57
2022/03/14 08:00:10;;;;;;;21.40;9.65;;;;;;;6.38;41.58;98667.16;5042261;28;20480;-57
2022/03/14 08:02:38;;;;;;;23.73;10.25;;;;;;;6.90;41.07;98663.94;5042319;28;20045;-56
2022/03/14 08:05:06;;;;;;;30.13;13.30;;;;;;;7.51;40.19;98655.94;5041040;28;20053;-59
2022/03/14 08:07:34;;;;;;;10.15;5.25;;;;;;;6.97;39.95;98631.25;5043760;28;20133;-61
2022/03/14 08:10:09;;;;;;;12.93;6.03;;;;;;;7.24;39.77;98661.53;5044684;28;20061;-63
2022/03/14 08:12:49;;;;;;;10.00;5.05;;;;;;;7.21;39.97;98653.06;5042655;28;20048;-61
2022/03/14 08:15:31;;;;;;;14.73;4.82;;;;;;;6.81;39.52;98643.72;5041485;28;20479;-62
2022/03/14 08:18:03;;;;;;;9.10;4.15;;;;;;;6.47;38.84;98681.84;5041768;28;20602;-60
2022/03/14 08:20:31;;;;;;;7.13;3.20;;;;;;;6.08;38.19;98673.22;5064653;28;20064;-61
2022/03/14 08:23:00;;;;;;;8.40;3.80;;;;;;;6.08;38.25;98665.78;5043640;28;20049;-62
2022/03/14 08:25:27;;;;;;;4.15;2.40;;;;;;;5.88;38.42;98676.31;5043892;28;20067;-61
2022/03/14 08:27:55;;;;;;;5.60;2.30;;;;;;;4.69;38.60;98604.41;5043155;28;20051;-55
2022/03/14 08:30:22;;;;;;;5.70;2.92;;;;;;;5.01;39.63;98652.31;5042015;28;20064;-61
2022/03/14 08:32:51;;;;;;;7.47;3.00;;;;;;;4.88;40.50;98664.00;5042890;28;20076;-56
2022/03/14 08:35:20;;;;;;;14.18;5.00;;;;;;;4.87;39.31;98624.75;5042936;28;20045;-59
2022/03/14 08:37:50;;;;;;;7.47;3.30;;;;;;;5.47;39.77;98672.53;5042358;28;20156;-58
2022/03/14 08:40:22;;;;;;;10.23;3.92;;;;;;;5.55;39.67;98680.91;5042057;28;20044;-64
2022/03/14 08:42:52;;;;;;;9.45;3.30;;;;;;;5.30;39.70;98647.50;5038225;28;20102;-55
2022/03/14 08:45:19;;;;;;;10.18;3.85;;;;;;;5.78;39.75;98682.75;5043265;28;20430;-56
2022/03/14 08:47:46;;;;;;;8.40;3.50;;;;;;;5.84;39.79;98686.25;5043569;28;20049;-58
2022/03/14 08:50:14;;;;;;;8.00;3.47;;;;;;;5.95;38.95;98690.47;5044033;28;20190;-59
2022/03/14 08:52:43;;;;;;;7.45;3.80;;;;;;;6.20;38.38;98686.50;5040649;28;20131;-59
2022/03/14 08:55:10;;;;;;;3.97;2.10;;;;;;;2.72;39.35;98258.25;5043113;28;20139;-64
2022/03/14 08:57:39;;;;;;;5.97;2.85;;;;;;;4.85;40.68;98645.38;5041948;28;20059;-60
2022/03/14 09:00:11;;;;;;;16.25;6.93;;;;;;;5.29;41.58;98704.38;5043045;28;20049;-62
2022/03/14 09:02:38;;;;;;;7.55;3.72;;;;;;;4.31;40.83;98572.53;5041067;28;20049;-61
2022/03/14 09:05:05;;;;;;;15.63;5.85;;;;;;;5.19;41.17;98676.22;5041619;28;20435;-61
2022/03/14 09:07:32;;;;;;;9.52;3.63;;;;;;;5.22;41.50;98714.09;5041308;28;20435;-58
2022/03/14 09:10:17;;;;;;;9.93;4.38;;;;;;;5.16;40.53;98704.28;5042250;28;20912;-64
2022/03/14 09:12:50;;;;;;;14.20;5.57;;;;;;;5.66;40.14;98711.81;5042866;28;20044;-61
2022/03/14 09:15:17;;;;;;;9.48;3.58;;;;;;;4.81;40.20;98652.56;5040765;28;20053;-57
2022/03/14 09:17:56;;;;;;;10.20;3.85;;;;;;;4.78;39.68;98592.75;5041269;28;20829;-58
2022/03/14 09:20:24;;;;;;;9.00;4.10;;;;;;;5.16;40.12;98617.22;5041172;28;20056;-61
2022/03/14 09:22:51;;;;;;;16.17;5.05;;;;;;;5.11;40.16;98620.03;5042922;28;20219;-58
2022/03/14 09:25:19;;;;;;;16.77;4.80;;;;;;;5.38;40.53;98657.81;5041690;28;20057;-59
2022/03/14 09:27:50;;;;;;;13.73;3.22;;;;;;;3.93;39.29;98340.50;5041933;28;20053;-60
2022/03/14 09:30:18;;;;;;;9.80;4.47;;;;;;;6.12;40.04;98696.25;5041753;28;20061;-60
2022/03/14 09:32:45;;;;;;;8.45;3.08;;;;;;;5.87;39.57;98700.25;5042937;28;20056;-58
2022/03/14 09:35:14;;;;;;;8.73;4.00;;;;;;;5.64;38.35;98659.06;5041481;28;20546;-58
2022/03/14 09:37:42;;;;;;;7.05;3.45;;;;;;;6.00;39.10;98693.16;5042651;28;20060;-60
2022/03/14 09:40:11;;;;;;;11.40;4.40;;;;;;;6.18;39.40;98700.53;5043392;28;20155;-55
2022/03/14 09:42:40;;;;;;;14.45;4.07;;;;;;;6.33;38.93;98696.69;5041611;28;20156;-56
2022/03/14 09:45:09;;;;;;;10.27;4.15;;;;;;;6.03;39.39;98665.03;5041290;28;20051;-56
2022/03/14 09:47:38;;;;;;;9.15;3.08;;;;;;;6.55;39.29;98694.91;5041209;28;20051;-59
2022/03/14 09:50:20;;;;;;;10.43;3.80;;;;;;;6.20;38.65;98703.81;5043199;28;20053;-55
2022/03/14 09:52:48;;;;;;;9.30;2.67;;;;;;;5.96;38.72;98692.09;5041083;28;20053;-55
2022/03/14 09:55:16;;;;;;;12.02;4.95;;;;;;;6.46;39.21;98695.91;5043309;28;20478;-55
2022/03/14 09:57:42;;;;;;;11.38;4.47;;;;;;;5.91;38.34;98639.97;5045984;28;20048;-60
2022/03/14 10:00:13;;;;;;;8.05;3.92;;;;;;;6.07;39.25;98693.56;5045190;28;20045;-60
2022/03/14 10:02:41;;;;;;;11.77;4.70;;;;;;;6.55;38.56;98694.91;5046696;28;20049;-61
2022/03/14 10:05:13;;;;;;;12.43;5.28;;;;;;;6.22;38.45;98689.75;5046893;28;20114;-59
2022/03/14 10:07:43;;;;;;;33.85;12.15;;;;;;;6.39;39.85;98701.00;5044915;28;20040;-59
2022/03/14 10:10:10;;;;;;;31.02;8.40;;;;;;;5.99;38.38;98669.53;5046355;28;20061;-59
2022/03/14 10:12:38;;;;;;;27.27;8.40;;;;;;;6.03;39.70;98687.06;5045480;28;20052;-54
2022/03/14 10:15:08;;;;;;;24.77;11.43;;;;;;;6.41;40.06;98694.09;5045341;28;20056;-55
2022/03/14 10:17:35;;;;;;;5.40;3.30;;;;;;;6.76;38.16;98696.16;5046124;28;20049;-60
2022/03/14 10:20:06;;;;;;;10.50;4.85;;;;;;;6.74;38.35;98681.88;5046633;28;20491;-59
2022/03/14 10:22:38;;;;;;;8.23;3.95;;;;;;;6.34;38.86;98685.38;5044964;28;20057;-60
2022/03/14 10:25:13;;;;;;;10.35;5.15;;;;;;;4.62;39.62;98420.09;5046701;28;20063;-60
2022/03/14 10:27:44;;;;;;;12.18;4.90;;;;;;;7.08;38.17;98676.75;5045986;28;20142;-60
2022/03/14 10:30:31;;;;;;;10.00;4.95;;;;;;;7.46;38.22;98675.34;5046512;28;20502;-55
2022/03/14 10:33:23;;;;;;;10.18;4.70;;;;;;;7.27;38.45;98676.66;5046093;28;20049;-55
2022/03/14 10:35:54;;;;;;;11.20;4.60;;;;;;;7.43;38.86;98667.72;5045917;28;20044;-55
2022/03/14 10:38:21;;;;;;;9.65;3.92;;;;;;;6.48;38.56;98666.94;5046109;28;20048;-55
2022/03/14 10:40:49;;;;;;;10.18;4.35;;;;;;;6.19;39.14;98658.16;5046317;28;20049;-60
2022/03/14 10:43:35;;;;;;;8.98;5.53;;;;;;;6.33;39.01;98686.53;5044362;28;20049;-58
2022/03/14 10:46:04;;;;;;;10.48;4.63;;;;;;;6.79;38.67;98643.22;5046475;28;20813;-59
2022/03/14 10:48:41;;;;;;;10.35;4.82;;;;;;;7.23;38.77;98657.16;5044119;28;20594;-57
2022/03/14 10:51:12;;;;;;;11.40;5.03;;;;;;;7.53;38.11;98659.22;5045508;28;20045;-56
2022/03/14 10:53:44;;;;;;;10.63;4.75;;;;;;;7.58;38.39;98663.78;5045728;28;20049;-55
2022/03/14 10:56:12;;;;;;;12.77;4.90;;;;;;;7.98;37.28;98656.47;5046150;28;20448;-55
2022/03/14 10:58:39;;;;;;;12.70;4.43;;;;;;;7.94;37.08;98658.22;5045461;28;20132;-59
2022/03/14 11:01:08;;;;;;;11.40;4.28;;;;;;;7.55;37.07;98636.84;5043891;28;20049;-60
2022/03/14 11:03:39;;;;;;;7.20;3.70;;;;;;;7.49;38.45;98655.44;5045120;28;20049;-55
2022/03/14 11:06:17;;;;;;;10.80;4.20;;;;;;;7.34;38.00;98642.00;5044947;28;20139;-55
2022/03/14 11:08:47;;;;;;;8.05;3.90;;;;;;;7.91;37.39;98629.31;5043663;28;20045;-56
2022/03/14 11:11:15;;;;;;;11.55;4.97;;;;;;;7.98;37.99;98662.81;5044876;28;20053;-58
2022/03/14 11:13:45;;;;;;;7.55;3.80;;;;;;;7.14;38.41;98663.69;5044851;28;20081;-59
2022/03/14 11:16:17;;;;;;;11.30;4.80;;;;;;;7.61;37.68;98647.44;5045645;28;20045;-56
2022/03/14 11:18:46;;;;;;;8.50;4.00;;;;;;;7.35;37.30;98560.94;5043723;28;20087;-55
2022/03/14 11:21:14;;;;;;;12.93;4.97;;;;;;;7.29;37.42;98572.38;5045550;28;20080;-55
2022/03/14 11:23:46;;;;;;;11.63;6.07;;;;;;;7.89;37.05;98587.44;5044880;28;20072;-54
2022/03/14 11:26:15;;;;;;;12.98;5.35;;;;;;;8.57;36.25;98636.69;5045200;28;20059;-55
2022/03/14 11:28:44;;;;;;;7.10;3.50;;;;;;;8.01;36.95;98622.72;5044784;28;20059;-60
2022/03/14 11:31:11;;;;;;;9.15;4.47;;;;;;;7.68;37.07;98559.56;5045689;28;20412;-56
2022/03/14 11:33:43;;;;;;;15.00;5.18;;;;;;;7.85;36.63;98569.06;5043961;28;20055;-59
2022/03/14 11:36:10;;;;;;;10.82;4.57;;;;;;;8.47;36.62;98637.78;5045203;28;20056;-59